sensor_id;sensor_type;location;lat;lon;timestamp;P1;durP1;ratioP1;P2;durP2;ratioP2
4023;SDS011;2026;51.002;13.668;2022-09-01T00:02:59;7.37;;;5.67;;
4023;SDS011;2026;51.002;13.668;2022-09-01T00:08:02;9.20;;;6.47;;
4023;SDS011;2026;51.002;13.668;2022-09-01T00:13:06;6.13;;;5.53;;
4023;SDS011;2026;51.002;13.668;2022-09-01T00:18:11;6.83;;;5.00;;
4023;SDS011;2026;51.002;13.668;2022-09-01T00:23:16;6.77;;;5.17;;
4023;SDS011;2026;51.002;13.668;2022-09-01T00:28:19;6.70;;;5.73;;
4023;SDS011;2026;51.002;13.668;2022-09-01T00:33:30;5.60;;;4.90;;
4023;SDS011;2026;51.002;13.668;2022-09-01T00:38:34;9.70;;;5.70;;
4023;SDS011;2026;51.002;13.668;2022-09-01T00:43:38;5.83;;;5.23;;
4023;SDS011;2026;51.002;13.668;2022-09-01T00:48:46;8.13;;;5.00;;
4023;SDS011;2026;51.002;13.668;2022-09-01T00:53:55;7.50;;;5.30;;
4023;SDS011;2026;51.002;13.668;2022-09-01T00:59:00;5.83;;;5.10;;
4023;SDS011;2026;51.002;13.668;2022-09-01T01:04:06;7.10;;;4.97;;
4023;SDS011;2026;51.002;13.668;2022-09-01T01:09:15;10.37;;;5.20;;
4023;SDS011;2026;51.002;13.668;2022-09-01T01:14:19;5.53;;;5.03;;
4023;SDS011;2026;51.002;13.668;2022-09-01T01:19:24;6.50;;;5.53;;
4023;SDS011;2026;51.002;13.668;2022-09-01T01:24:58;9.43;;;5.30;;
4023;SDS011;2026;51.002;13.668;2022-09-01T01:30:03;7.13;;;5.13;;
4023;SDS011;2026;51.002;13.668;2022-09-01T01:35:11;8.50;;;4.93;;
4023;SDS011;2026;51.002;13.668;2022-09-01T01:40:19;9.53;;;5.17;;
4023;SDS011;2026;51.002;13.668;2022-09-01T01:45:23;6.77;;;5.20;;
4023;SDS011;2026;51.002;13.668;2022-09-01T01:50:27;7.80;;;4.70;;
4023;SDS011;2026;51.002;13.668;2022-09-01T01:55:38;6.90;;;5.13;;
4023;SDS011;2026;51.002;13.668;2022-09-01T02:00:42;6.77;;;5.77;;
4023;SDS011;2026;51.002;13.668;2022-09-01T02:05:48;8.07;;;5.40;;
4023;SDS011;2026;51.002;13.668;2022-09-01T02:10:56;7.20;;;5.00;;
4023;SDS011;2026;51.002;13.668;2022-09-01T02:16:02;6.53;;;4.83;;
4023;SDS011;2026;51.002;13.668;2022-09-01T02:21:15;6.80;;;4.80;;
4023;SDS011;2026;51.002;13.668;2022-09-01T02:26:22;5.80;;;5.07;;
4023;SDS011;2026;51.002;13.668;2022-09-01T02:31:30;7.20;;;5.03;;
4023;SDS011;2026;51.002;13.668;2022-09-01T02:36:36;10.40;;;5.90;;
4023;SDS011;2026;51.002;13.668;2022-09-01T02:41:46;6.93;;;4.90;;
4023;SDS011;2026;51.002;13.668;2022-09-01T02:46:52;5.93;;;5.17;;
4023;SDS011;2026;51.002;13.668;2022-09-01T02:51:58;5.40;;;4.90;;
4023;SDS011;2026;51.002;13.668;2022-09-01T02:57:05;7.87;;;5.30;;
4023;SDS011;2026;51.002;13.668;2022-09-01T03:02:09;5.43;;;4.30;;
4023;SDS011;2026;51.002;13.668;2022-09-01T03:07:13;5.30;;;4.70;;
4023;SDS011;2026;51.002;13.668;2022-09-01T03:12:24;5.90;;;4.43;;
4023;SDS011;2026;51.002;13.668;2022-09-01T03:17:28;6.30;;;5.20;;
4023;SDS011;2026;51.002;13.668;2022-09-01T03:22:31;13.50;;;5.33;;
4023;SDS011;2026;51.002;13.668;2022-09-01T03:27:36;6.10;;;5.30;;
4023;SDS011;2026;51.002;13.668;2022-09-01T03:32:39;5.37;;;4.87;;
4023;SDS011;2026;51.002;13.668;2022-09-01T03:37:42;7.10;;;5.47;;
4023;SDS011;2026;51.002;13.668;2022-09-01T03:42:47;5.67;;;4.83;;
4023;SDS011;2026;51.002;13.668;2022-09-01T03:47:50;5.60;;;5.10;;
4023;SDS011;2026;51.002;13.668;2022-09-01T03:52:56;7.33;;;6.10;;
4023;SDS011;2026;51.002;13.668;2022-09-01T03:58:03;6.30;;;5.40;;
4023;SDS011;2026;51.002;13.668;2022-09-01T04:03:11;6.60;;;5.27;;
4023;SDS011;2026;51.002;13.668;2022-09-01T04:08:18;6.47;;;5.30;;
4023;SDS011;2026;51.002;13.668;2022-09-01T04:13:26;7.40;;;6.10;;
4023;SDS011;2026;51.002;13.668;2022-09-01T04:18:32;6.93;;;6.00;;
4023;SDS011;2026;51.002;13.668;2022-09-01T04:23:36;9.10;;;5.60;;
4023;SDS011;2026;51.002;13.668;2022-09-01T04:28:43;5.93;;;5.33;;
4023;SDS011;2026;51.002;13.668;2022-09-01T04:33:49;7.77;;;6.03;;
4023;SDS011;2026;51.002;13.668;2022-09-01T04:38:56;8.63;;;5.90;;
4023;SDS011;2026;51.002;13.668;2022-09-01T04:44:03;7.00;;;6.30;;
4023;SDS011;2026;51.002;13.668;2022-09-01T04:49:10;7.80;;;5.47;;
4023;SDS011;2026;51.002;13.668;2022-09-01T04:54:17;8.50;;;6.43;;
4023;SDS011;2026;51.002;13.668;2022-09-01T04:59:23;7.07;;;6.23;;
4023;SDS011;2026;51.002;13.668;2022-09-01T05:04:31;8.23;;;6.73;;
4023;SDS011;2026;51.002;13.668;2022-09-01T05:09:36;9.40;;;6.87;;
4023;SDS011;2026;51.002;13.668;2022-09-01T05:15:00;8.40;;;7.23;;
4023;SDS011;2026;51.002;13.668;2022-09-01T05:20:09;8.03;;;6.60;;
4023;SDS011;2026;51.002;13.668;2022-09-01T05:25:14;16.70;;;13.07;;
4023;SDS011;2026;51.002;13.668;2022-09-01T05:30:20;23.63;;;20.50;;
4023;SDS011;2026;51.002;13.668;2022-09-01T05:35:23;17.47;;;14.53;;
4023;SDS011;2026;51.002;13.668;2022-09-01T05:40:34;14.20;;;12.70;;
4023;SDS011;2026;51.002;13.668;2022-09-01T05:45:43;10.90;;;8.80;;
4023;SDS011;2026;51.002;13.668;2022-09-01T05:51:06;8.00;;;7.20;;
4023;SDS011;2026;51.002;13.668;2022-09-01T05:56:30;11.27;;;9.33;;
4023;SDS011;2026;51.002;13.668;2022-09-01T06:01:35;15.03;;;10.10;;
4023;SDS011;2026;51.002;13.668;2022-09-01T06:06:44;11.20;;;9.50;;
4023;SDS011;2026;51.002;13.668;2022-09-01T06:12:09;12.03;;;9.13;;
4023;SDS011;2026;51.002;13.668;2022-09-01T06:17:21;10.70;;;8.93;;
4023;SDS011;2026;51.002;13.668;2022-09-01T06:22:30;13.20;;;8.83;;
4023;SDS011;2026;51.002;13.668;2022-09-01T06:27:33;11.67;;;7.87;;
4023;SDS011;2026;51.002;13.668;2022-09-01T06:32:43;8.40;;;7.07;;
4023;SDS011;2026;51.002;13.668;2022-09-01T06:37:47;12.00;;;7.60;;
4023;SDS011;2026;51.002;13.668;2022-09-01T06:43:08;11.20;;;7.47;;
4023;SDS011;2026;51.002;13.668;2022-09-01T06:48:16;11.47;;;7.97;;
4023;SDS011;2026;51.002;13.668;2022-09-01T06:53:24;13.20;;;8.17;;
4023;SDS011;2026;51.002;13.668;2022-09-01T06:58:38;11.10;;;6.83;;
4023;SDS011;2026;51.002;13.668;2022-09-01T07:03:44;8.80;;;7.40;;
4023;SDS011;2026;51.002;13.668;2022-09-01T07:08:51;9.63;;;7.20;;
4023;SDS011;2026;51.002;13.668;2022-09-01T07:14:18;10.47;;;7.87;;
4023;SDS011;2026;51.002;13.668;2022-09-01T07:19:24;8.43;;;7.07;;
4023;SDS011;2026;51.002;13.668;2022-09-01T07:24:47;8.80;;;6.87;;
4023;SDS011;2026;51.002;13.668;2022-09-01T07:30:26;7.40;;;6.00;;
4023;SDS011;2026;51.002;13.668;2022-09-01T07:35:34;13.17;;;7.97;;
4023;SDS011;2026;51.002;13.668;2022-09-01T07:40:59;8.17;;;6.53;;
4023;SDS011;2026;51.002;13.668;2022-09-01T07:46:42;9.17;;;6.47;;
4023;SDS011;2026;51.002;13.668;2022-09-01T07:51:53;7.67;;;6.47;;
4023;SDS011;2026;51.002;13.668;2022-09-01T07:57:00;7.80;;;7.00;;
4023;SDS011;2026;51.002;13.668;2022-09-01T08:02:05;9.43;;;6.20;;
4023;SDS011;2026;51.002;13.668;2022-09-01T08:07:10;8.00;;;6.00;;
4023;SDS011;2026;51.002;13.668;2022-09-01T08:12:17;7.73;;;6.10;;
4023;SDS011;2026;51.002;13.668;2022-09-01T08:17:29;12.67;;;6.07;;
4023;SDS011;2026;51.002;13.668;2022-09-01T08:22:52;7.23;;;5.80;;
4023;SDS011;2026;51.002;13.668;2022-09-01T08:27:57;12.23;;;6.17;;
4023;SDS011;2026;51.002;13.668;2022-09-01T08:33:01;9.80;;;6.20;;
4023;SDS011;2026;51.002;13.668;2022-09-01T08:38:17;9.20;;;5.77;;
4023;SDS011;2026;51.002;13.668;2022-09-01T08:43:25;9.40;;;5.20;;
4023;SDS011;2026;51.002;13.668;2022-09-01T08:48:39;6.13;;;5.13;;
4023;SDS011;2026;51.002;13.668;2022-09-01T08:54:20;8.30;;;5.70;;
4023;SDS011;2026;51.002;13.668;2022-09-01T08:59:32;5.83;;;5.07;;
4023;SDS011;2026;51.002;13.668;2022-09-01T09:04:46;6.20;;;5.60;;
4023;SDS011;2026;51.002;13.668;2022-09-01T09:10:05;6.93;;;5.20;;
4023;SDS011;2026;51.002;13.668;2022-09-01T09:15:14;9.33;;;5.10;;
4023;SDS011;2026;51.002;13.668;2022-09-01T09:20:24;6.10;;;5.07;;
4023;SDS011;2026;51.002;13.668;2022-09-01T09:25:29;9.03;;;5.40;;
4023;SDS011;2026;51.002;13.668;2022-09-01T09:30:32;10.50;;;5.40;;
4023;SDS011;2026;51.002;13.668;2022-09-01T09:35:37;5.60;;;5.00;;
4023;SDS011;2026;51.002;13.668;2022-09-01T09:40:51;9.20;;;5.13;;
4023;SDS011;2026;51.002;13.668;2022-09-01T09:46:20;9.17;;;6.27;;
4023;SDS011;2026;51.002;13.668;2022-09-01T09:51:26;6.30;;;5.47;;
4023;SDS011;2026;51.002;13.668;2022-09-01T09:56:31;9.37;;;5.03;;
4023;SDS011;2026;51.002;13.668;2022-09-01T10:01:34;5.47;;;4.20;;
4023;SDS011;2026;51.002;13.668;2022-09-01T10:06:39;7.30;;;4.73;;
4023;SDS011;2026;51.002;13.668;2022-09-01T10:11:48;6.80;;;4.27;;
4023;SDS011;2026;51.002;13.668;2022-09-01T10:16:55;7.17;;;5.37;;
4023;SDS011;2026;51.002;13.668;2022-09-01T10:22:04;13.23;;;4.83;;
4023;SDS011;2026;51.002;13.668;2022-09-01T10:27:17;6.30;;;4.13;;
4023;SDS011;2026;51.002;13.668;2022-09-01T10:32:24;9.63;;;4.40;;
4023;SDS011;2026;51.002;13.668;2022-09-01T10:37:46;11.40;;;3.80;;
4023;SDS011;2026;51.002;13.668;2022-09-01T10:42:52;11.40;;;3.90;;
4023;SDS011;2026;51.002;13.668;2022-09-01T10:48:21;10.07;;;4.47;;
4023;SDS011;2026;51.002;13.668;2022-09-01T10:53:36;5.77;;;4.03;;
4023;SDS011;2026;51.002;13.668;2022-09-01T10:58:45;5.13;;;3.60;;
4023;SDS011;2026;51.002;13.668;2022-09-01T11:04:21;5.47;;;3.77;;
4023;SDS011;2026;51.002;13.668;2022-09-01T11:09:40;7.67;;;3.47;;
4023;SDS011;2026;51.002;13.668;2022-09-01T11:14:47;4.80;;;3.53;;
4023;SDS011;2026;51.002;13.668;2022-09-01T11:19:53;6.00;;;3.20;;
4023;SDS011;2026;51.002;13.668;2022-09-01T11:30:42;5.97;;;3.53;;
4023;SDS011;2026;51.002;13.668;2022-09-01T11:35:57;4.90;;;3.13;;
4023;SDS011;2026;51.002;13.668;2022-09-01T11:41:03;7.37;;;2.90;;
4023;SDS011;2026;51.002;13.668;2022-09-01T11:46:09;2.63;;;2.43;;
4023;SDS011;2026;51.002;13.668;2022-09-01T11:51:19;4.37;;;2.17;;
4023;SDS011;2026;51.002;13.668;2022-09-01T11:56:23;3.37;;;2.30;;
4023;SDS011;2026;51.002;13.668;2022-09-01T12:01:32;4.80;;;2.37;;
4023;SDS011;2026;51.002;13.668;2022-09-01T12:06:36;3.87;;;2.07;;
4023;SDS011;2026;51.002;13.668;2022-09-01T12:11:39;6.10;;;2.20;;
4023;SDS011;2026;51.002;13.668;2022-09-01T12:16:44;6.20;;;2.77;;
4023;SDS011;2026;51.002;13.668;2022-09-01T12:22:12;4.53;;;2.10;;
4023;SDS011;2026;51.002;13.668;2022-09-01T12:27:16;3.07;;;2.73;;
4023;SDS011;2026;51.002;13.668;2022-09-01T12:32:21;7.20;;;2.60;;
4023;SDS011;2026;51.002;13.668;2022-09-01T12:37:24;3.13;;;2.83;;
4023;SDS011;2026;51.002;13.668;2022-09-01T12:42:29;4.80;;;2.50;;
4023;SDS011;2026;51.002;13.668;2022-09-01T12:47:49;3.53;;;2.30;;
4023;SDS011;2026;51.002;13.668;2022-09-01T12:52:53;5.80;;;3.30;;
4023;SDS011;2026;51.002;13.668;2022-09-01T12:57:58;7.53;;;2.57;;
4023;SDS011;2026;51.002;13.668;2022-09-01T13:03:06;4.33;;;2.30;;
4023;SDS011;2026;51.002;13.668;2022-09-01T13:08:16;2.90;;;2.23;;
4023;SDS011;2026;51.002;13.668;2022-09-01T13:13:21;3.90;;;2.40;;
4023;SDS011;2026;51.002;13.668;2022-09-01T13:18:27;4.10;;;2.10;;
4023;SDS011;2026;51.002;13.668;2022-09-01T13:23:30;3.43;;;1.90;;
4023;SDS011;2026;51.002;13.668;2022-09-01T13:28:33;2.40;;;1.70;;
4023;SDS011;2026;51.002;13.668;2022-09-01T13:33:42;2.80;;;1.90;;
4023;SDS011;2026;51.002;13.668;2022-09-01T13:39:05;3.63;;;2.13;;
4023;SDS011;2026;51.002;13.668;2022-09-01T13:44:08;2.10;;;1.87;;
4023;SDS011;2026;51.002;13.668;2022-09-01T13:49:13;3.23;;;1.80;;
4023;SDS011;2026;51.002;13.668;2022-09-01T13:54:36;2.20;;;1.80;;
4023;SDS011;2026;51.002;13.668;2022-09-01T13:59:39;3.20;;;1.80;;
4023;SDS011;2026;51.002;13.668;2022-09-01T14:04:43;2.40;;;1.80;;
4023;SDS011;2026;51.002;13.668;2022-09-01T14:09:46;2.47;;;2.10;;
4023;SDS011;2026;51.002;13.668;2022-09-01T14:14:49;5.47;;;2.30;;
4023;SDS011;2026;51.002;13.668;2022-09-01T14:20:15;4.50;;;2.00;;
4023;SDS011;2026;51.002;13.668;2022-09-01T14:25:20;2.10;;;1.73;;
4023;SDS011;2026;51.002;13.668;2022-09-01T14:30:24;4.27;;;1.63;;
4023;SDS011;2026;51.002;13.668;2022-09-01T14:35:35;2.03;;;1.40;;
4023;SDS011;2026;51.002;13.668;2022-09-01T14:40:40;3.87;;;1.90;;
4023;SDS011;2026;51.002;13.668;2022-09-01T14:45:45;1.50;;;1.40;;
4023;SDS011;2026;51.002;13.668;2022-09-01T14:50:49;2.57;;;1.87;;
4023;SDS011;2026;51.002;13.668;2022-09-01T14:55:53;4.40;;;1.90;;
4023;SDS011;2026;51.002;13.668;2022-09-01T15:00:57;1.70;;;1.60;;
4023;SDS011;2026;51.002;13.668;2022-09-01T15:06:22;1.80;;;1.60;;
4023;SDS011;2026;51.002;13.668;2022-09-01T15:11:25;2.70;;;1.40;;
4023;SDS011;2026;51.002;13.668;2022-09-01T15:16:28;2.10;;;1.43;;
4023;SDS011;2026;51.002;13.668;2022-09-01T15:21:37;1.97;;;1.73;;
4023;SDS011;2026;51.002;13.668;2022-09-01T15:26:42;1.90;;;1.70;;
4023;SDS011;2026;51.002;13.668;2022-09-01T15:31:47;2.00;;;1.60;;
4023;SDS011;2026;51.002;13.668;2022-09-01T15:36:52;4.77;;;1.90;;
4023;SDS011;2026;51.002;13.668;2022-09-01T15:41:55;6.50;;;1.90;;
4023;SDS011;2026;51.002;13.668;2022-09-01T15:46:58;3.10;;;1.90;;
4023;SDS011;2026;51.002;13.668;2022-09-01T15:52:02;4.50;;;2.00;;
4023;SDS011;2026;51.002;13.668;2022-09-01T15:57:06;1.90;;;1.70;;
4023;SDS011;2026;51.002;13.668;2022-09-01T16:02:09;4.03;;;2.00;;
4023;SDS011;2026;51.002;13.668;2022-09-01T16:07:17;3.00;;;1.50;;
4023;SDS011;2026;51.002;13.668;2022-09-01T16:12:20;3.10;;;1.87;;
4023;SDS011;2026;51.002;13.668;2022-09-01T16:17:24;2.83;;;1.77;;
4023;SDS011;2026;51.002;13.668;2022-09-01T16:22:47;2.83;;;2.00;;
4023;SDS011;2026;51.002;13.668;2022-09-01T16:27:55;2.20;;;2.00;;
4023;SDS011;2026;51.002;13.668;2022-09-01T16:33:02;6.37;;;2.10;;
4023;SDS011;2026;51.002;13.668;2022-09-01T16:38:25;2.97;;;1.80;;
4023;SDS011;2026;51.002;13.668;2022-09-01T16:43:37;2.93;;;1.77;;
4023;SDS011;2026;51.002;13.668;2022-09-01T16:48:50;4.97;;;1.73;;
4023;SDS011;2026;51.002;13.668;2022-09-01T16:54:02;3.57;;;1.70;;
4023;SDS011;2026;51.002;13.668;2022-09-01T16:59:16;3.37;;;2.40;;
4023;SDS011;2026;51.002;13.668;2022-09-01T17:04:27;3.67;;;2.07;;
4023;SDS011;2026;51.002;13.668;2022-09-01T17:09:39;2.80;;;1.77;;
4023;SDS011;2026;51.002;13.668;2022-09-01T17:14:44;4.10;;;1.97;;
4023;SDS011;2026;51.002;13.668;2022-09-01T17:19:52;1.87;;;1.70;;
4023;SDS011;2026;51.002;13.668;2022-09-01T17:24:57;4.13;;;2.53;;
4023;SDS011;2026;51.002;13.668;2022-09-01T17:30:09;3.43;;;2.90;;
4023;SDS011;2026;51.002;13.668;2022-09-01T17:35:15;3.47;;;2.30;;
4023;SDS011;2026;51.002;13.668;2022-09-01T17:40:26;5.50;;;2.40;;
4023;SDS011;2026;51.002;13.668;2022-09-01T17:45:38;3.83;;;2.40;;
4023;SDS011;2026;51.002;13.668;2022-09-01T17:50:53;3.67;;;2.07;;
4023;SDS011;2026;51.002;13.668;2022-09-01T17:56:08;4.40;;;2.07;;
4023;SDS011;2026;51.002;13.668;2022-09-01T18:01:35;3.00;;;1.90;;
4023;SDS011;2026;51.002;13.668;2022-09-01T18:06:45;3.73;;;2.03;;
4023;SDS011;2026;51.002;13.668;2022-09-01T18:11:56;3.83;;;2.43;;
4023;SDS011;2026;51.002;13.668;2022-09-01T18:17:03;5.70;;;4.03;;
4023;SDS011;2026;51.002;13.668;2022-09-01T18:22:12;3.60;;;3.23;;
4023;SDS011;2026;51.002;13.668;2022-09-01T18:27:19;3.27;;;2.57;;
4023;SDS011;2026;51.002;13.668;2022-09-01T18:32:28;4.87;;;3.60;;
4023;SDS011;2026;51.002;13.668;2022-09-01T18:37:44;5.50;;;3.27;;
4023;SDS011;2026;51.002;13.668;2022-09-01T18:42:58;2.97;;;2.57;;
4023;SDS011;2026;51.002;13.668;2022-09-01T18:48:18;3.40;;;2.40;;
4023;SDS011;2026;51.002;13.668;2022-09-01T18:53:30;4.20;;;2.13;;
4023;SDS011;2026;51.002;13.668;2022-09-01T18:58:43;5.23;;;2.90;;
4023;SDS011;2026;51.002;13.668;2022-09-01T19:03:55;2.93;;;2.60;;
4023;SDS011;2026;51.002;13.668;2022-09-01T19:09:11;4.67;;;2.60;;
4023;SDS011;2026;51.002;13.668;2022-09-01T19:14:22;4.20;;;3.57;;
4023;SDS011;2026;51.002;13.668;2022-09-01T19:19:33;5.57;;;3.57;;
4023;SDS011;2026;51.002;13.668;2022-09-01T19:24:46;4.37;;;3.03;;
4023;SDS011;2026;51.002;13.668;2022-09-01T19:29:54;11.67;;;8.20;;
4023;SDS011;2026;51.002;13.668;2022-09-01T19:35:03;6.20;;;4.93;;
4023;SDS011;2026;51.002;13.668;2022-09-01T19:40:11;4.70;;;3.83;;
4023;SDS011;2026;51.002;13.668;2022-09-01T19:45:29;3.97;;;2.80;;
4023;SDS011;2026;51.002;13.668;2022-09-01T19:50:44;4.20;;;3.40;;
4023;SDS011;2026;51.002;13.668;2022-09-01T19:55:52;2.90;;;2.60;;
4023;SDS011;2026;51.002;13.668;2022-09-01T20:01:07;3.40;;;2.70;;
4023;SDS011;2026;51.002;13.668;2022-09-01T20:06:16;3.47;;;2.63;;
4023;SDS011;2026;51.002;13.668;2022-09-01T20:11:27;2.90;;;2.47;;
4023;SDS011;2026;51.002;13.668;2022-09-01T20:16:43;3.07;;;2.50;;
4023;SDS011;2026;51.002;13.668;2022-09-01T20:21:48;3.23;;;2.60;;
4023;SDS011;2026;51.002;13.668;2022-09-01T20:26:55;3.93;;;2.83;;
4023;SDS011;2026;51.002;13.668;2022-09-01T20:32:04;3.40;;;2.63;;
4023;SDS011;2026;51.002;13.668;2022-09-01T20:37:08;3.90;;;2.87;;
4023;SDS011;2026;51.002;13.668;2022-09-01T20:42:17;2.50;;;2.10;;
4023;SDS011;2026;51.002;13.668;2022-09-01T20:47:27;2.70;;;2.50;;
4023;SDS011;2026;51.002;13.668;2022-09-01T20:52:32;5.10;;;3.37;;
4023;SDS011;2026;51.002;13.668;2022-09-01T20:57:43;4.10;;;2.80;;
4023;SDS011;2026;51.002;13.668;2022-09-01T21:02:56;3.73;;;2.57;;
4023;SDS011;2026;51.002;13.668;2022-09-01T21:08:07;3.93;;;2.80;;
4023;SDS011;2026;51.002;13.668;2022-09-01T21:13:22;3.13;;;2.80;;
4023;SDS011;2026;51.002;13.668;2022-09-01T21:18:41;5.10;;;3.30;;
4023;SDS011;2026;51.002;13.668;2022-09-01T21:23:54;4.17;;;3.10;;
4023;SDS011;2026;51.002;13.668;2022-09-01T21:28:57;6.23;;;3.70;;
4023;SDS011;2026;51.002;13.668;2022-09-01T21:34:09;3.47;;;3.17;;
4023;SDS011;2026;51.002;13.668;2022-09-01T21:39:17;6.57;;;3.37;;
4023;SDS011;2026;51.002;13.668;2022-09-01T21:44:20;3.30;;;3.00;;
4023;SDS011;2026;51.002;13.668;2022-09-01T21:49:24;3.20;;;2.80;;
4023;SDS011;2026;51.002;13.668;2022-09-01T21:54:29;6.30;;;3.50;;
4023;SDS011;2026;51.002;13.668;2022-09-01T21:59:32;3.37;;;3.07;;
4023;SDS011;2026;51.002;13.668;2022-09-01T22:04:37;6.10;;;3.20;;
4023;SDS011;2026;51.002;13.668;2022-09-01T22:09:40;3.87;;;3.13;;
4023;SDS011;2026;51.002;13.668;2022-09-01T22:14:43;4.47;;;3.30;;
4023;SDS011;2026;51.002;13.668;2022-09-01T22:19:47;4.03;;;3.60;;
4023;SDS011;2026;51.002;13.668;2022-09-01T22:24:50;7.07;;;3.50;;
4023;SDS011;2026;51.002;13.668;2022-09-01T22:29:53;6.43;;;3.60;;
4023;SDS011;2026;51.002;13.668;2022-09-01T22:34:58;6.47;;;3.83;;
4023;SDS011;2026;51.002;13.668;2022-09-01T22:40:03;6.23;;;4.00;;
4023;SDS011;2026;51.002;13.668;2022-09-01T22:45:08;4.00;;;3.60;;
4023;SDS011;2026;51.002;13.668;2022-09-01T22:50:13;3.70;;;3.40;;
4023;SDS011;2026;51.002;13.668;2022-09-01T22:55:16;4.43;;;3.73;;
4023;SDS011;2026;51.002;13.668;2022-09-01T23:00:20;3.70;;;3.27;;
4023;SDS011;2026;51.002;13.668;2022-09-01T23:05:24;4.33;;;3.57;;
4023;SDS011;2026;51.002;13.668;2022-09-01T23:10:27;4.63;;;3.50;;
4023;SDS011;2026;51.002;13.668;2022-09-01T23:15:30;4.60;;;3.97;;
4023;SDS011;2026;51.002;13.668;2022-09-01T23:20:35;3.90;;;3.50;;
4023;SDS011;2026;51.002;13.668;2022-09-01T23:25:38;6.63;;;4.23;;
4023;SDS011;2026;51.002;13.668;2022-09-01T23:30:44;3.90;;;3.50;;
4023;SDS011;2026;51.002;13.668;2022-09-01T23:35:52;4.00;;;3.40;;
4023;SDS011;2026;51.002;13.668;2022-09-01T23:40:57;4.60;;;3.93;;
4023;SDS011;2026;51.002;13.668;2022-09-01T23:46:01;4.00;;;3.60;;
4023;SDS011;2026;51.002;13.668;2022-09-01T23:51:08;5.70;;;4.10;;
4023;SDS011;2026;51.002;13.668;2022-09-01T23:56:13;4.70;;;3.90;;
